createdAt,value
2018-03-04T00:00:54.464Z,15.47
2018-03-04T00:03:20.733Z,15.23
2018-03-04T00:05:46.939Z,15.37
2018-03-04T00:08:13.276Z,14.03
2018-03-04T00:10:40.531Z,14.57
2018-03-04T00:13:06.751Z,15.50
2018-03-04T00:15:33.014Z,15.77
2018-03-04T00:17:59.248Z,14.87
2018-03-04T00:20:25.499Z,15.20
2018-03-04T00:22:51.763Z,14.67
2018-03-04T00:25:18.852Z,15.37
2018-03-04T00:27:45.096Z,14.83
2018-03-04T00:30:11.364Z,14.63
2018-03-04T00:32:37.607Z,16.50
2018-03-04T00:35:03.839Z,15.23
2018-03-04T00:37:30.090Z,20.50
2018-03-04T00:39:56.354Z,13.67
2018-03-04T00:42:22.572Z,17.17
2018-03-04T00:44:48.819Z,15.47
2018-03-04T00:47:15.379Z,14.50
2018-03-04T00:49:41.627Z,16.27
2018-03-04T00:52:07.866Z,15.70
2018-03-04T00:54:34.104Z,18.00
2018-03-04T00:57:00.318Z,18.47
2018-03-04T00:59:26.690Z,17.23
2018-03-04T01:01:52.911Z,14.83
2018-03-04T01:04:19.170Z,16.60
2018-03-04T01:06:45.431Z,15.30
2018-03-04T01:09:11.659Z,15.90
2018-03-04T01:11:37.884Z,17.63
2018-03-04T01:14:04.151Z,16.63
2018-03-04T01:16:30.384Z,17.30
2018-03-04T01:18:56.646Z,16.53
2018-03-04T01:21:22.900Z,17.83
2018-03-04T01:23:49.115Z,15.63
2018-03-04T01:26:15.323Z,17.37
2018-03-04T01:28:41.564Z,16.30
2018-03-04T01:31:07.956Z,17.10
2018-03-04T01:33:34.178Z,17.10
2018-03-04T01:36:00.467Z,16.80
2018-03-04T01:38:26.720Z,17.50
2018-03-04T01:40:52.950Z,16.77
2018-03-04T01:43:19.594Z,17.83
2018-03-04T01:45:45.815Z,17.60
2018-03-04T01:48:12.040Z,18.10
2018-03-04T01:50:38.299Z,15.83
2018-03-04T01:53:04.512Z,17.60
2018-03-04T01:55:30.896Z,17.20
2018-03-04T01:57:57.176Z,18.47
2018-03-04T02:00:23.383Z,17.27
2018-03-04T02:02:49.843Z,17.47
2018-03-04T02:05:16.159Z,19.37
2018-03-04T02:07:42.481Z,19.27
2018-03-04T02:10:08.732Z,18.37
2018-03-04T02:12:35.163Z,17.97
2018-03-04T02:15:01.600Z,19.13
2018-03-04T02:17:27.824Z,18.30
2018-03-04T02:19:54.067Z,20.50
2018-03-04T02:22:20.290Z,19.23
2018-03-04T02:24:46.503Z,19.13
2018-03-04T02:27:12.865Z,18.60
2018-03-04T02:29:39.227Z,18.53
2018-03-04T02:32:05.449Z,18.30
2018-03-04T02:34:31.863Z,18.70
2018-03-04T02:36:58.085Z,20.20
2018-03-04T02:39:24.455Z,18.40
2018-03-04T02:41:50.748Z,19.17
2018-03-04T02:44:16.963Z,17.97
2018-03-04T02:46:43.380Z,20.97
2018-03-04T02:49:09.626Z,18.97
2018-03-04T02:51:35.851Z,18.20
2018-03-04T02:54:02.167Z,18.27
2018-03-04T02:56:28.424Z,18.27
2018-03-04T02:58:54.780Z,18.67
2018-03-04T03:01:21.020Z,19.57
2018-03-04T03:03:47.295Z,19.37
2018-03-04T03:06:13.805Z,18.57
2018-03-04T03:08:40.206Z,19.07
2018-03-04T03:11:06.565Z,19.63
2018-03-04T03:13:32.855Z,18.83
2018-03-04T03:15:59.155Z,18.40
2018-03-04T03:18:25.591Z,18.67
2018-03-04T03:20:51.823Z,19.07
2018-03-04T03:23:18.037Z,18.83
2018-03-04T03:25:44.281Z,17.93
2018-03-04T03:28:10.495Z,17.27
2018-03-04T03:30:36.807Z,17.63
2018-03-04T03:33:03.099Z,19.30
2018-03-04T03:35:29.392Z,20.03
2018-03-04T03:37:55.773Z,18.63
2018-03-04T03:40:22.017Z,18.27
2018-03-04T03:42:48.231Z,18.37
2018-03-04T03:45:14.443Z,19.77
2018-03-04T03:47:40.710Z,19.60
2018-03-04T03:50:07.123Z,18.93
2018-03-04T03:52:33.331Z,18.97
2018-03-04T03:54:59.570Z,20.00
2018-03-04T03:57:25.924Z,20.53
2018-03-04T03:59:52.127Z,18.17
2018-03-04T04:02:18.403Z,20.03
2018-03-04T04:04:44.651Z,18.03
2018-03-04T04:07:10.895Z,19.40
2018-03-04T04:09:37.339Z,19.77
2018-03-04T04:12:03.564Z,19.13
2018-03-04T04:14:29.778Z,19.53
2018-03-04T04:16:56.082Z,18.23
2018-03-04T04:19:22.302Z,18.80
2018-03-04T04:21:48.607Z,18.23
2018-03-04T04:24:14.875Z,19.50
2018-03-04T04:26:41.092Z,18.80
2018-03-04T04:29:07.375Z,18.43
2018-03-04T04:31:33.628Z,18.53
2018-03-04T04:33:59.847Z,19.83
2018-03-04T04:36:26.112Z,18.40
2018-03-04T04:38:52.356Z,18.10
2018-03-04T04:41:18.672Z,19.60
2018-03-04T04:43:44.902Z,19.87
2018-03-04T04:46:11.143Z,19.53
2018-03-04T04:48:37.580Z,18.47
2018-03-04T04:51:03.827Z,19.07
2018-03-04T04:53:30.079Z,17.20
2018-03-04T04:55:56.417Z,18.83
2018-03-04T04:58:22.660Z,17.57
2018-03-04T05:00:49.118Z,17.07
2018-03-04T05:03:15.355Z,18.80
2018-03-04T05:05:41.591Z,17.57
2018-03-04T05:08:07.912Z,18.77
2018-03-04T05:10:34.159Z,18.00
2018-03-04T05:13:00.382Z,20.43
2018-03-04T05:15:26.643Z,18.03
2018-03-04T05:17:52.855Z,19.40
2018-03-04T05:20:19.281Z,19.80
2018-03-04T05:22:45.536Z,20.70
2018-03-04T05:25:11.780Z,19.07
2018-03-04T05:27:38.076Z,18.00
2018-03-04T05:30:04.331Z,19.10
2018-03-04T05:32:30.618Z,19.27
2018-03-04T05:34:56.863Z,20.17
2018-03-04T05:37:23.160Z,19.70
2018-03-04T05:39:49.423Z,20.17
2018-03-04T05:42:15.639Z,21.27
2018-03-04T05:44:41.948Z,18.50
2018-03-04T05:47:08.268Z,19.03
2018-03-04T05:49:34.513Z,18.90
2018-03-04T05:52:00.868Z,19.63
2018-03-04T05:54:27.119Z,20.53
2018-03-04T05:56:53.348Z,32.10
2018-03-04T05:59:19.751Z,21.63
2018-03-04T06:01:45.987Z,18.57
2018-03-04T06:04:12.211Z,20.17
2018-03-04T06:06:38.456Z,19.67
2018-03-04T06:09:04.675Z,20.07
2018-03-04T06:11:31.095Z,19.47
2018-03-04T06:13:57.385Z,21.27
2018-03-04T06:16:23.610Z,19.47
2018-03-04T06:18:49.855Z,18.93
2018-03-04T06:21:16.155Z,33.67
2018-03-04T06:23:42.569Z,31.63
2018-03-04T06:26:08.819Z,21.63
2018-03-04T06:28:35.095Z,21.63
2018-03-04T06:31:01.560Z,20.37
2018-03-04T06:33:27.815Z,21.10
2018-03-04T06:35:54.043Z,21.70
2018-03-04T06:38:20.288Z,19.10
2018-03-04T06:40:46.524Z,21.13
2018-03-04T06:43:12.898Z,19.80
2018-03-04T06:45:39.158Z,21.20
2018-03-04T06:48:05.401Z,22.03
2018-03-04T06:50:31.844Z,23.27
2018-03-04T06:52:58.075Z,23.37
2018-03-04T06:55:24.335Z,22.50
2018-03-04T06:57:50.588Z,21.60
2018-03-04T07:00:16.821Z,21.33
2018-03-04T07:02:43.293Z,22.67
2018-03-04T07:05:09.551Z,21.30
2018-03-04T07:07:35.773Z,20.23
2018-03-04T07:10:02.094Z,21.03
2018-03-04T07:12:28.335Z,24.93
2018-03-04T07:14:54.586Z,22.03
2018-03-04T07:17:20.843Z,23.87
2018-03-04T07:19:47.083Z,22.07
2018-03-04T07:22:13.472Z,22.97
2018-03-04T07:24:39.767Z,21.00
2018-03-04T07:27:06.012Z,21.90
2018-03-04T07:29:32.284Z,23.17
2018-03-04T07:31:58.521Z,24.33
2018-03-04T07:34:24.868Z,27.53
2018-03-04T07:36:51.095Z,25.00
2018-03-04T07:39:17.316Z,23.63
2018-03-04T07:41:43.836Z,23.10
2018-03-04T07:44:10.063Z,23.50
2018-03-04T07:46:36.296Z,24.27
2018-03-04T07:49:02.536Z,24.00
2018-03-04T07:51:28.743Z,24.67
2018-03-04T07:53:56.240Z,24.47
2018-03-04T07:56:22.489Z,24.40
2018-03-04T07:58:48.997Z,24.03
2018-03-04T08:01:15.223Z,25.20
2018-03-04T08:03:41.467Z,25.30
2018-03-04T08:06:07.866Z,24.53
2018-03-04T08:08:34.071Z,24.80
2018-03-04T08:11:00.307Z,27.40
2018-03-04T08:13:26.527Z,24.83
2018-03-04T08:15:52.756Z,25.37
2018-03-04T08:18:19.158Z,25.37
2018-03-04T08:20:45.391Z,26.43
2018-03-04T08:23:11.624Z,27.17
2018-03-04T08:25:38.093Z,26.23
2018-03-04T08:28:16.323Z,26.50
2018-03-04T08:30:42.635Z,27.27
2018-03-04T08:33:08.869Z,25.00
2018-03-04T08:35:35.080Z,26.43
2018-03-04T08:38:01.516Z,27.60
2018-03-04T08:40:27.727Z,25.43
2018-03-04T08:42:53.948Z,27.00
2018-03-04T08:45:20.309Z,25.27
2018-03-04T08:47:46.525Z,26.20
2018-03-04T08:50:12.847Z,25.57
2018-03-04T08:52:39.090Z,24.13
2018-03-04T08:55:05.707Z,36.93
2018-03-04T08:57:32.019Z,27.20
2018-03-04T08:59:58.247Z,36.67
2018-03-04T09:02:24.480Z,25.00
2018-03-04T09:04:50.731Z,25.47
2018-03-04T09:07:16.989Z,25.20
2018-03-04T09:09:43.446Z,22.60
2018-03-04T09:12:09.675Z,23.00
2018-03-04T09:14:35.976Z,22.47
2018-03-04T09:17:02.294Z,23.33
2018-03-04T09:19:28.492Z,23.30
2018-03-04T09:21:54.817Z,22.57
2018-03-04T09:24:21.210Z,22.43
2018-03-04T09:26:47.437Z,23.47
2018-03-04T09:29:14.018Z,23.37
2018-03-04T09:31:40.256Z,23.50
2018-03-04T09:34:06.673Z,23.13
2018-03-04T09:36:32.909Z,23.70
2018-03-04T09:38:59.099Z,24.73
2018-03-04T09:41:25.333Z,24.33
2018-03-04T09:43:51.592Z,23.20
2018-03-04T09:46:17.924Z,23.77
2018-03-04T09:48:44.166Z,22.60
2018-03-04T09:51:10.428Z,22.73
2018-03-04T09:53:36.988Z,22.63
2018-03-04T09:56:03.200Z,23.57
2018-03-04T09:58:29.455Z,24.13
2018-03-04T10:00:55.692Z,22.07
2018-03-04T10:03:21.959Z,23.87
2018-03-04T10:05:48.313Z,23.33
2018-03-04T10:08:14.527Z,23.77
2018-03-04T10:10:40.780Z,23.50
2018-03-04T10:13:07.167Z,24.47
2018-03-04T10:15:33.399Z,25.03
2018-03-04T10:17:59.731Z,23.30
2018-03-04T10:20:26.035Z,24.50
2018-03-04T10:22:52.278Z,23.23
2018-03-04T10:25:18.503Z,24.23
2018-03-04T10:27:44.748Z,22.30
2018-03-04T10:30:10.968Z,23.80
2018-03-04T10:32:37.184Z,22.80
2018-03-04T10:35:03.456Z,23.80
2018-03-04T10:37:29.688Z,23.80
2018-03-04T10:39:55.912Z,23.20
2018-03-04T10:42:22.147Z,23.87
2018-03-04T10:44:48.351Z,23.90
2018-03-04T10:47:14.585Z,22.87
2018-03-04T10:49:40.832Z,22.57
2018-03-04T10:52:07.080Z,22.37
2018-03-04T10:54:33.461Z,24.23
2018-03-04T10:56:59.708Z,22.57
2018-03-04T10:59:26.156Z,23.57
2018-03-04T11:01:52.427Z,23.53
2018-03-04T11:04:18.738Z,23.63
2018-03-04T11:06:45.004Z,23.63
2018-03-04T11:09:11.247Z,25.13
2018-03-04T11:11:37.531Z,24.97
2018-03-04T11:14:03.765Z,23.67
2018-03-04T11:16:30.167Z,23.77
2018-03-04T11:18:56.499Z,25.07
2018-03-04T11:21:22.711Z,25.07
2018-03-04T11:23:49.046Z,25.90
2018-03-04T11:26:15.358Z,27.10
2018-03-04T11:28:41.618Z,25.07
2018-03-04T11:31:07.979Z,25.77
2018-03-04T11:33:34.255Z,26.33
2018-03-04T11:36:00.546Z,26.57
2018-03-04T11:38:27.103Z,28.03
2018-03-04T11:40:53.387Z,28.43
2018-03-04T11:43:19.672Z,29.37
2018-03-04T11:45:45.907Z,30.33
2018-03-04T11:48:12.167Z,29.43
2018-03-04T11:50:38.372Z,28.80
2018-03-04T11:53:04.595Z,28.60
2018-03-04T11:55:30.836Z,30.20
2018-03-04T11:57:57.057Z,30.67
2018-03-04T12:00:23.504Z,28.58
2018-03-04T12:02:49.760Z,41.33
2018-03-04T12:05:16.241Z,34.70
2018-03-04T12:07:42.475Z,31.02
2018-03-04T12:10:08.736Z,30.95
2018-03-04T12:12:34.963Z,29.55
2018-03-04T12:15:01.193Z,30.90
2018-03-04T12:17:27.436Z,28.50
2018-03-04T12:19:53.643Z,29.98
2018-03-04T12:22:19.854Z,29.63
2018-03-04T12:24:46.095Z,30.35
2018-03-04T12:27:12.670Z,29.77
2018-03-04T12:29:38.913Z,28.77
2018-03-04T12:32:05.304Z,27.90
2018-03-04T12:34:31.675Z,29.90
2018-03-04T12:36:57.892Z,28.48
2018-03-04T12:39:24.504Z,28.65
2018-03-04T12:41:50.808Z,27.65
2018-03-04T12:44:17.063Z,28.98
2018-03-04T12:46:43.586Z,27.13
2018-03-04T12:49:09.812Z,27.37
2018-03-04T12:51:36.225Z,28.27
2018-03-04T12:54:02.475Z,27.92
2018-03-04T12:56:28.704Z,26.33
2018-03-04T12:58:55.184Z,26.37
2018-03-04T13:01:21.462Z,49.40
2018-03-04T13:03:47.930Z,27.23
2018-03-04T13:06:14.175Z,26.90
2018-03-04T13:08:40.420Z,26.85
2018-03-04T13:11:06.876Z,25.00
2018-03-04T13:13:33.969Z,26.10
2018-03-04T13:16:00.523Z,24.63
2018-03-04T13:18:26.973Z,24.92
2018-03-04T13:20:53.203Z,23.60
2018-03-04T13:23:19.483Z,22.13
2018-03-04T13:25:45.709Z,24.15
2018-03-04T13:28:11.923Z,32.42
2018-03-04T13:30:38.227Z,38.13
2018-03-04T13:33:04.444Z,23.17
2018-03-04T13:35:30.659Z,22.35
2018-03-04T13:37:56.924Z,23.40
2018-03-04T13:40:23.176Z,21.65
2018-03-04T13:42:49.427Z,22.33
2018-03-04T13:45:16.690Z,22.45
2018-03-04T13:47:42.931Z,22.13
2018-03-04T13:50:09.144Z,21.48
2018-03-04T13:52:35.388Z,22.80
2018-03-04T13:55:01.694Z,22.62
2018-03-04T13:57:27.879Z,21.95
2018-03-04T13:59:54.292Z,20.77
2018-03-04T14:02:20.532Z,21.60
2018-03-04T14:04:46.749Z,20.80
2018-03-04T14:07:13.000Z,20.73
2018-03-04T14:09:39.244Z,21.33
2018-03-04T14:12:05.456Z,20.50
2018-03-04T14:14:31.753Z,19.85
2018-03-04T14:16:57.964Z,21.00
2018-03-04T14:19:24.194Z,21.50
2018-03-04T14:21:50.451Z,21.17
2018-03-04T14:24:16.759Z,20.30
2018-03-04T14:26:43.019Z,20.10
2018-03-04T14:29:09.283Z,18.35
2018-03-04T14:31:35.499Z,18.83
2018-03-04T14:34:01.922Z,19.98
2018-03-04T14:36:28.236Z,18.33
2018-03-04T14:38:54.471Z,19.07
2018-03-04T14:41:20.704Z,19.23
2018-03-04T14:43:47.058Z,18.63
2018-03-04T14:46:13.291Z,19.73
2018-03-04T14:48:39.515Z,17.70
2018-03-04T14:51:05.829Z,17.97
2018-03-04T14:53:32.036Z,17.93
2018-03-04T14:55:58.308Z,18.83
2018-03-04T14:58:24.560Z,18.17
2018-03-04T15:00:50.816Z,17.97
2018-03-04T15:03:17.028Z,18.63
2018-03-04T15:05:43.576Z,17.63
2018-03-04T15:08:09.876Z,17.63
2018-03-04T15:10:36.100Z,16.80
2018-03-04T15:13:02.399Z,18.83
2018-03-04T15:15:28.654Z,17.23
2018-03-04T15:20:27.747Z,19.23
2018-03-04T15:22:54.004Z,18.07
2018-03-04T15:25:20.242Z,24.13
2018-03-04T15:27:46.491Z,22.27
2018-03-04T15:30:12.740Z,20.80
2018-03-04T15:32:38.971Z,30.10
2018-03-04T15:35:05.250Z,19.20
2018-03-04T15:37:31.728Z,19.03
2018-03-04T15:39:57.977Z,19.23
2018-03-04T15:42:24.293Z,19.33
2018-03-04T15:44:50.540Z,19.17
2018-03-04T15:47:16.800Z,18.40
2018-03-04T15:49:43.128Z,17.97
2018-03-04T15:52:09.343Z,17.03
2018-03-04T15:54:35.578Z,17.87
2018-03-04T15:57:01.840Z,17.07
2018-03-04T15:59:28.068Z,16.77
2018-03-04T16:01:54.313Z,16.63
2018-03-04T16:04:20.576Z,15.80
2018-03-04T16:06:46.807Z,16.37
2018-03-04T16:09:13.066Z,18.53
2018-03-04T16:11:39.387Z,16.03
2018-03-04T16:14:05.674Z,16.20
2018-03-04T16:16:31.899Z,15.33
2018-03-04T16:18:58.148Z,17.03
2018-03-04T16:21:24.393Z,16.00
2018-03-04T16:23:50.608Z,16.77
2018-03-04T16:26:16.876Z,16.57
2018-03-04T16:28:43.159Z,17.33
2018-03-04T16:31:09.428Z,16.13
2018-03-04T16:33:35.750Z,16.87
2018-03-04T16:36:01.975Z,17.27
2018-03-04T16:38:28.212Z,20.93
2018-03-04T16:40:54.468Z,21.60
2018-03-04T16:43:20.723Z,19.33
2018-03-04T16:45:46.943Z,19.23
2018-03-04T16:48:13.185Z,17.07
2018-03-04T16:50:39.392Z,17.27
2018-03-04T16:53:05.681Z,17.87
2018-03-04T16:55:31.932Z,19.90
2018-03-04T16:57:58.200Z,18.60
2018-03-04T17:00:24.440Z,18.50
2018-03-04T17:02:50.745Z,18.57
2018-03-04T17:05:16.964Z,20.57
2018-03-04T17:07:43.196Z,22.03
2018-03-04T17:10:09.440Z,19.90
2018-03-04T17:12:35.751Z,19.93
2018-03-04T17:15:01.979Z,20.60
2018-03-04T17:17:28.255Z,20.27
2018-03-04T17:19:54.484Z,19.83
2018-03-04T17:22:20.799Z,21.83
2018-03-04T17:24:47.088Z,20.70
2018-03-04T17:27:13.347Z,20.23
2018-03-04T17:29:39.559Z,22.63
2018-03-04T17:32:05.795Z,26.70
2018-03-04T17:34:32.008Z,23.03
2018-03-04T17:36:58.250Z,23.17
2018-03-04T17:39:24.494Z,22.07
2018-03-04T17:41:50.732Z,21.63
2018-03-04T17:44:16.989Z,21.37
2018-03-04T17:46:43.323Z,22.60
2018-03-04T17:49:09.947Z,24.63
2018-03-04T17:51:36.239Z,21.23
2018-03-04T17:54:02.612Z,22.17
2018-03-04T17:56:28.851Z,21.10
2018-03-04T17:58:55.047Z,21.67
2018-03-04T18:01:21.468Z,20.90
2018-03-04T18:03:47.823Z,21.03
2018-03-04T18:06:14.066Z,21.20
2018-03-04T18:08:40.348Z,20.70
2018-03-04T18:11:06.564Z,22.23
2018-03-04T18:13:32.780Z,22.47
2018-03-04T18:15:59.016Z,22.50
2018-03-04T18:18:25.280Z,21.93
2018-03-04T18:20:51.728Z,25.00
2018-03-04T18:23:18.047Z,22.33
2018-03-04T18:25:44.281Z,24.17
2018-03-04T18:28:10.736Z,22.70
2018-03-04T18:30:36.981Z,22.70
2018-03-04T18:33:03.281Z,22.87
2018-03-04T18:35:29.551Z,23.30
2018-03-04T18:37:55.827Z,20.80
2018-03-04T18:40:22.230Z,20.87
2018-03-04T18:42:48.456Z,22.20
2018-03-04T18:45:14.740Z,22.27
2018-03-04T18:47:40.956Z,20.43
2018-03-04T18:50:07.165Z,22.57
2018-03-04T18:52:33.546Z,21.23
2018-03-04T18:54:59.796Z,22.80
2018-03-04T18:57:26.016Z,21.63
2018-03-04T18:59:52.464Z,24.63
2018-03-04T19:02:19.056Z,18.93
2018-03-04T19:04:45.286Z,22.47
2018-03-04T19:07:11.520Z,21.70
2018-03-04T19:09:37.740Z,21.17
2018-03-04T19:12:04.988Z,21.03
2018-03-04T19:14:31.256Z,21.70
2018-03-04T19:16:57.485Z,22.03
2018-03-04T19:19:23.759Z,21.67
2018-03-04T19:21:49.999Z,20.93
2018-03-04T19:24:16.225Z,20.60
2018-03-04T19:26:42.492Z,27.83
2018-03-04T19:29:08.765Z,19.37
2018-03-04T19:31:34.998Z,19.40
2018-03-04T19:34:01.228Z,19.03
2018-03-04T19:36:27.488Z,18.03
2018-03-04T19:38:53.700Z,21.03
2018-03-04T19:41:19.915Z,22.00
2018-03-04T19:43:46.167Z,20.77
2018-03-04T19:46:12.399Z,20.40
2018-03-04T19:48:38.608Z,18.57
2018-03-04T19:51:04.859Z,19.13
2018-03-04T19:53:31.087Z,17.80
2018-03-04T19:55:57.308Z,18.73
2018-03-04T19:58:23.566Z,19.07
2018-03-04T20:00:50.087Z,20.87
2018-03-04T20:03:16.333Z,19.10
2018-03-04T20:05:42.873Z,19.30
2018-03-04T20:08:09.107Z,18.90
2018-03-04T20:10:35.353Z,17.53
2018-03-04T20:13:01.915Z,18.50
2018-03-04T20:15:28.141Z,19.00
2018-03-04T20:17:54.609Z,18.93
2018-03-04T20:20:20.939Z,18.97
2018-03-04T20:22:47.163Z,18.00
2018-03-04T20:25:13.704Z,18.57
2018-03-04T20:27:39.992Z,18.90
2018-03-04T20:30:06.399Z,18.07
2018-03-04T20:32:32.628Z,19.13
2018-03-04T20:34:58.908Z,18.90
2018-03-04T20:37:25.445Z,18.40
2018-03-04T20:39:51.665Z,16.97
2018-03-04T20:42:18.020Z,17.87
2018-03-04T20:44:44.387Z,18.70
2018-03-04T20:47:10.607Z,19.73
2018-03-04T20:49:37.216Z,24.47
2018-03-04T20:52:03.479Z,23.93
2018-03-04T20:54:29.733Z,19.40
2018-03-04T20:56:56.163Z,18.33
2018-03-04T20:59:22.374Z,17.27
2018-03-04T21:01:49.794Z,16.60
2018-03-04T21:04:16.036Z,17.47
2018-03-04T21:06:42.435Z,16.30
2018-03-04T21:09:08.672Z,17.23
2018-03-04T21:11:34.967Z,15.83
2018-03-04T21:14:01.517Z,16.90
2018-03-04T21:16:27.710Z,17.27
2018-03-04T21:18:54.048Z,16.63
2018-03-04T21:21:20.411Z,17.30
2018-03-04T21:23:46.616Z,17.47
2018-03-04T21:26:13.236Z,15.73
2018-03-04T21:28:39.500Z,18.00
2018-03-04T21:31:05.710Z,16.57
2018-03-04T21:33:32.139Z,16.40
2018-03-04T21:35:58.352Z,16.53
2018-03-04T21:38:24.795Z,16.47
2018-03-04T21:40:51.080Z,17.37
2018-03-04T21:43:17.296Z,18.03
2018-03-04T21:45:43.820Z,16.50
2018-03-04T21:48:10.076Z,15.53
2018-03-04T21:50:36.526Z,17.83
2018-03-04T21:53:02.853Z,16.83
2018-03-04T21:55:29.095Z,17.40
2018-03-04T21:57:55.603Z,17.87
2018-03-04T22:00:21.840Z,17.67
2018-03-04T22:02:48.190Z,18.73
2018-03-04T22:05:14.564Z,17.97
2018-03-04T22:07:40.779Z,17.10
2018-03-04T22:10:07.511Z,17.20
2018-03-04T22:12:33.735Z,16.73
2018-03-04T22:15:00.765Z,18.43
2018-03-04T22:17:27.048Z,16.30
2018-03-04T22:19:53.262Z,16.60
2018-03-04T22:22:19.612Z,16.03
2018-03-04T22:24:45.859Z,16.07
2018-03-04T22:27:12.216Z,17.70
2018-03-04T22:29:38.463Z,18.70
2018-03-04T22:32:04.711Z,17.73
2018-03-04T22:34:30.936Z,17.53
2018-03-04T22:36:57.152Z,19.03
2018-03-04T22:39:23.403Z,17.93
2018-03-04T22:41:49.616Z,16.60
2018-03-04T22:44:15.853Z,18.07
2018-03-04T22:46:42.112Z,17.83
2018-03-04T22:49:09.432Z,19.63
2018-03-04T22:51:35.658Z,17.80
2018-03-04T22:54:02.047Z,18.50
2018-03-04T22:56:28.295Z,18.83
2018-03-04T22:58:55.244Z,17.73
2018-03-04T23:01:21.547Z,18.97
2018-03-04T23:03:47.804Z,17.30
2018-03-04T23:06:14.035Z,18.23
2018-03-04T23:08:40.291Z,18.40
2018-03-04T23:11:06.532Z,18.00
2018-03-04T23:13:32.747Z,16.90
2018-03-04T23:15:59.008Z,18.10
2018-03-04T23:18:25.214Z,17.70
2018-03-04T23:20:51.456Z,18.57
2018-03-04T23:23:17.708Z,17.73
2018-03-04T23:25:43.931Z,17.27
2018-03-04T23:28:10.151Z,18.30
2018-03-04T23:30:36.424Z,17.97
2018-03-04T23:33:02.827Z,19.00
2018-03-04T23:35:29.056Z,16.67
2018-03-04T23:37:55.316Z,18.27
2018-03-04T23:40:21.557Z,18.17
2018-03-04T23:42:47.771Z,17.73
2018-03-04T23:45:14.206Z,18.37
2018-03-04T23:47:40.424Z,17.63
2018-03-04T23:50:06.631Z,18.60
2018-03-04T23:52:32.876Z,17.43
2018-03-04T23:54:59.090Z,17.70
2018-03-04T23:57:25.300Z,17.60
2018-03-04T23:59:51.543Z,17.97
